首页
METAR-TAF:

METAR-TAF

机场 :

安托法加斯塔, 智利

纬度: 23-26S, 经度: 070-26W, 海拔: 135米

当前天气观测

该预报发布于49分钟前的23:00 UTC
风速8节,风向
温度 15°C
湿度 72%
气压 1014 hPa
能见度10公里或以上
散云层高于1700英尺
多云层高于2900英尺

METAR: SCFA 212300Z 18008KT 9999 SCT017 BKN029 15/10 Q1014 NOSIG

时间: 20:49 (23:49 UTC)

预报

该预报发布于1小时和19分钟前的22:30 UTC
预报有效从22日的 00点(UTC)到 22日的 24点(UTC)
风速8节,风向
能见度10公里或以上
多云层高于1500英尺
成为
从 22日的 03点(UTC)到 22日的 05点(UTC)
风速4节,风向南转西南
阴天层高于1200英尺
短暂存在
从 22日的 03点(UTC)到 22日的 07点(UTC)
能見度: 8000
多云层高于800英尺
阴天层高于1200英尺
小毛毛雨
成为
从 22日的 08点(UTC)到 22日的 10点(UTC)
风速4节,风向
散云层高于1000英尺
阴天层高于2000英尺
成为
从 22日的 16点(UTC)到 22日的 18点(UTC)
风速15节,风向南转西南
散云层高于2500英尺
成为
从 22日的 22点(UTC)到 22日的 24点(UTC)
多云层高于1500英尺

TAF: SCFA 212230Z 2200/2224 18008KT 9999 BKN015 TN14/2206Z TX17/2217Z BECMG 2203/2205 21004KT OVC012 TEMPO 2203/2207 8000 -DZ BKN008 OVC012 BECMG 2208/2210 36004KT SCT010 OVC020 BECMG 2216/2218 20015KT SCT025 BECMG 2222/2224 BKN015

超过4000个机场的气象观测和天气预报(METAR&TAF报告)。

可查询的气象台以黄色和红色小点在地图上表示。

将鼠标移到小点上方,可查看气象台名称。

然后点击查看天气观测和预报。

如需切换地图:点击带黑十字的绿色按钮放大地图;点击带横线的绿色按钮缩小地图;或者点击绿色箭头查看邻近地区的地图。


METAR-TAF: